createdAt,value
2019-04-21T00:00:31.937Z,57.85
2019-04-21T00:01:35.625Z,59.73
2019-04-21T00:02:36.023Z,60.14
2019-04-21T00:03:40.219Z,60.35
2019-04-21T00:04:43.386Z,60.17
2019-04-21T00:05:55.746Z,58.21
2019-04-21T00:06:48.124Z,59.55
2019-04-21T00:07:50.700Z,60.47
2019-04-21T00:08:56.547Z,60.17
2019-04-21T00:09:54.921Z,60.71
2019-04-21T00:10:57.874Z,61.61
2019-04-21T00:11:55.393Z,62.56
2019-04-21T00:12:49.206Z,63.15
2019-04-21T00:13:49.727Z,63.18
2019-04-21T00:14:43.376Z,64.14
2019-04-21T00:15:39.903Z,63.52
2019-04-21T00:16:43.220Z,62.79
2019-04-21T00:17:32.033Z,62.38
2019-04-21T00:18:40.831Z,62.90
2019-04-21T00:19:33.965Z,64.27
2019-04-21T00:20:40.919Z,64.68
2019-04-21T00:21:39.568Z,64.58
2019-04-21T00:22:44.059Z,64.27
2019-04-21T00:23:51.479Z,65.33
2019-04-21T00:24:44.337Z,65.40
2019-04-21T00:25:47.103Z,65.43
2019-04-21T00:26:49.494Z,64.81
2019-04-21T00:27:47.773Z,66.25
2019-04-21T00:28:59.478Z,65.64
2019-04-21T00:29:49.768Z,66.05
2019-04-21T00:30:50.918Z,66.28
2019-04-21T00:31:47.114Z,66.91
2019-04-21T00:32:45.063Z,67.63
2019-04-21T00:33:35.608Z,67.52
2019-04-21T00:34:34.264Z,67.11
2019-04-21T00:35:39.107Z,66.73
2019-04-21T00:36:43.946Z,67.45
2019-04-21T00:37:55.368Z,67.66
2019-04-21T00:39:02.414Z,68.38
2019-04-21T00:40:56.622Z,68.00
2019-04-21T00:42:00.884Z,68.30
2019-04-21T00:42:48.775Z,68.10
2019-04-21T00:43:46.532Z,68.82
2019-04-21T00:44:51.309Z,69.06
2019-04-21T00:45:42.216Z,69.24
2019-04-21T00:46:44.643Z,69.37
2019-04-21T00:47:54.517Z,69.89
2019-04-21T00:48:53.584Z,69.17
2019-04-21T00:49:52.708Z,69.89
2019-04-21T00:52:09.329Z,69.89
2019-04-21T00:53:05.500Z,69.48
2019-04-21T00:53:59.580Z,68.58
2019-04-21T00:55:01.096Z,69.27
2019-04-21T00:55:59.788Z,70.43
2019-04-21T00:56:56.675Z,70.51
2019-04-21T00:57:57.422Z,70.95
2019-04-21T00:58:54.371Z,70.43
2019-04-21T00:59:54.373Z,71.16
2019-04-21T01:01:02.207Z,71.78
2019-04-21T01:01:52.775Z,71.81
2019-04-21T01:02:57.606Z,71.61
2019-04-21T01:03:58.373Z,72.12
2019-04-21T01:05:00.144Z,72.09
2019-04-21T01:05:56.069Z,71.71
2019-04-21T01:06:55.963Z,71.71
2019-04-21T01:07:50.360Z,70.98
2019-04-21T01:08:53.199Z,71.50
2019-04-21T01:09:48.615Z,72.12
2019-04-21T01:10:43.342Z,72.26
2019-04-21T01:12:56.192Z,72.88
2019-04-21T01:14:01.090Z,73.29
2019-04-21T01:15:00.454Z,73.19
2019-04-21T01:15:53.053Z,73.08
2019-04-21T01:16:56.125Z,73.81
2019-04-21T01:17:53.197Z,73.60
2019-04-21T01:18:51.699Z,73.71
2019-04-21T01:19:47.061Z,73.81
2019-04-21T01:20:30.920Z,73.54
2019-04-21T01:21:31.079Z,73.43
2019-04-21T01:22:31.069Z,73.74
2019-04-21T01:23:29.889Z,74.15
2019-04-21T01:24:34.475Z,73.84
2019-04-21T01:25:39.335Z,74.05
2019-04-21T01:26:41.645Z,74.05
2019-04-21T01:27:50.814Z,74.57
2019-04-21T01:28:54.441Z,74.36
2019-04-21T01:29:55.182Z,74.29
2019-04-21T01:30:54.929Z,74.81
2019-04-21T01:31:48.268Z,75.02
2019-04-21T01:32:55.809Z,74.71
2019-04-21T01:33:50.953Z,74.88
2019-04-21T01:34:51.638Z,74.60
2019-04-21T01:35:48.263Z,74.71
2019-04-21T01:36:55.713Z,74.60
2019-04-21T01:38:10.959Z,74.60
2019-04-21T01:38:57.760Z,74.95
2019-04-21T01:39:58.400Z,74.95
2019-04-21T01:40:52.987Z,75.02
2019-04-21T01:41:50.874Z,75.02
2019-04-21T01:42:52.859Z,75.57
2019-04-21T01:43:53.529Z,75.46
2019-04-21T01:44:52.296Z,75.26
2019-04-21T01:45:49.391Z,75.78
2019-04-21T01:46:45.863Z,75.78
2019-04-21T01:47:49.180Z,75.36
2019-04-21T01:48:45.171Z,75.46
2019-04-21T01:49:43.122Z,75.71
2019-04-21T01:50:47.139Z,75.60
2019-04-21T01:52:03.889Z,76.02
2019-04-21T01:53:11.531Z,76.43
2019-04-21T01:53:53.430Z,76.43
2019-04-21T01:54:57.641Z,76.53
2019-04-21T01:55:48.558Z,76.74
2019-04-21T01:56:52.353Z,77.15
2019-04-21T01:57:47.107Z,78.12
2019-04-21T01:58:42.940Z,78.12
2019-04-21T01:59:43.472Z,77.61
2019-04-21T02:00:45.544Z,77.40
2019-04-21T02:01:54.148Z,76.88
2019-04-21T02:02:54.658Z,77.61
2019-04-21T02:03:58.388Z,76.57
2019-04-21T02:04:57.536Z,76.78
2019-04-21T02:06:00.055Z,76.23
2019-04-21T02:06:54.916Z,75.60
2019-04-21T02:07:50.831Z,76.64
2019-04-21T02:08:52.533Z,77.26
2019-04-21T02:09:51.298Z,76.95
2019-04-21T02:10:56.281Z,76.88
2019-04-21T02:11:55.221Z,77.40
2019-04-21T02:12:51.242Z,77.50
2019-04-21T02:13:57.241Z,77.92
2019-04-21T02:15:01.119Z,78.12
2019-04-21T02:15:56.363Z,77.81
2019-04-21T02:16:52.009Z,77.95
2019-04-21T02:17:53.678Z,77.54
2019-04-21T02:18:52.942Z,78.37
2019-04-21T02:19:48.024Z,78.47
2019-04-21T02:20:41.366Z,79.10
2019-04-21T02:21:43.302Z,79.24
2019-04-21T02:23:07.322Z,78.72
2019-04-21T02:23:54.587Z,79.34
2019-04-21T02:24:58.377Z,79.44
2019-04-21T02:25:51.080Z,79.55
2019-04-21T02:26:54.109Z,79.44
2019-04-21T02:27:50.221Z,79.03
2019-04-21T02:28:56.484Z,79.44
2019-04-21T02:29:55.836Z,78.82
2019-04-21T02:31:09.629Z,79.24
2019-04-21T02:32:05.677Z,79.13
2019-04-21T02:34:00.386Z,79.13
2019-04-21T02:35:14.760Z,79.13
2019-04-21T02:36:15.577Z,79.24
2019-04-21T02:37:17.506Z,79.24
2019-04-21T02:39:08.427Z,79.44
2019-04-21T02:40:04.238Z,79.65
2019-04-21T02:43:07.443Z,80.41
2019-04-21T02:45:00.017Z,81.35
2019-04-21T02:46:04.783Z,81.24
2019-04-21T02:47:21.222Z,81.28
2019-04-21T02:48:03.948Z,81.04
2019-04-21T02:49:03.992Z,81.04
2019-04-21T02:50:09.540Z,80.93
2019-04-21T02:50:50.054Z,81.38
2019-04-21T02:52:09.168Z,81.28
2019-04-21T02:53:00.909Z,81.28
2019-04-21T02:54:32.317Z,81.18
2019-04-21T02:55:02.390Z,81.18
2019-04-21T02:56:00.694Z,81.70
2019-04-21T02:57:08.609Z,81.49
2019-04-21T02:58:18.331Z,81.70
2019-04-21T02:59:02.270Z,81.84
2019-04-21T03:01:05.082Z,82.56
2019-04-21T03:02:16.319Z,82.25
2019-04-21T03:04:00.064Z,82.87
2019-04-21T03:05:02.407Z,82.29
2019-04-21T03:05:58.625Z,82.81
2019-04-21T03:07:09.444Z,82.87
2019-04-21T03:08:14.720Z,82.87
2019-04-21T03:09:01.147Z,82.91
2019-04-21T03:09:59.800Z,83.22
2019-04-21T03:11:04.728Z,83.22
2019-04-21T03:12:11.187Z,83.74
2019-04-21T03:13:07.675Z,83.95
2019-04-21T03:14:08.950Z,84.12
2019-04-21T03:16:11.865Z,84.12
2019-04-21T03:17:02.599Z,84.05
2019-04-21T03:18:18.772Z,83.53
2019-04-21T03:19:06.952Z,83.74
2019-04-21T03:21:13.402Z,84.27
2019-04-21T03:22:07.192Z,84.47
2019-04-21T03:23:07.844Z,84.27
2019-04-21T03:24:00.636Z,84.27
2019-04-21T03:25:21.326Z,84.47
2019-04-21T03:26:14.360Z,84.30
2019-04-21T03:27:09.816Z,84.92
2019-04-21T03:28:17.870Z,84.82
2019-04-21T03:29:02.969Z,84.72
2019-04-21T03:29:59.226Z,85.13
2019-04-21T03:31:25.582Z,84.92
2019-04-21T03:33:48.835Z,84.92
2019-04-21T03:35:32.775Z,85.03
2019-04-21T03:38:53.222Z,85.03
2019-04-21T03:40:01.409Z,85.34
2019-04-21T03:40:57.861Z,84.72
2019-04-21T03:42:08.802Z,84.68
2019-04-21T03:43:04.921Z,84.78
2019-04-21T03:43:58.886Z,84.47
2019-04-21T03:46:01.228Z,84.27
2019-04-21T03:48:01.362Z,83.68
2019-04-21T03:49:04.830Z,83.26
2019-04-21T03:50:04.729Z,84.30
2019-04-21T03:50:59.009Z,84.61
2019-04-21T03:52:03.549Z,84.51
2019-04-21T03:53:06.871Z,84.51
2019-04-21T03:54:00.619Z,84.41
2019-04-21T03:55:25.561Z,84.51
2019-04-21T03:56:02.764Z,84.82
2019-04-21T03:57:11.398Z,84.41
2019-04-21T04:00:06.271Z,84.82
2019-04-21T04:03:23.698Z,84.65
2019-04-21T04:04:15.083Z,84.20
2019-04-21T04:05:03.374Z,84.61
2019-04-21T04:08:12.884Z,84.44
2019-04-21T04:11:23.086Z,85.06
2019-04-21T04:13:02.726Z,85.69
2019-04-21T04:14:03.938Z,85.38
2019-04-21T04:17:08.397Z,85.28
2019-04-21T04:17:54.393Z,85.38
2019-04-21T04:18:57.857Z,85.59
2019-04-21T04:20:06.034Z,85.49
2019-04-21T04:21:04.477Z,86.00
2019-04-21T04:23:02.893Z,86.00
2019-04-21T04:24:04.671Z,85.90
2019-04-21T04:25:57.731Z,85.69
2019-04-21T04:28:14.166Z,85.44
2019-04-21T04:29:05.934Z,85.69
2019-04-21T04:29:59.164Z,85.49
2019-04-21T04:31:06.139Z,85.28
2019-04-21T04:32:18.752Z,84.92
2019-04-21T04:32:57.343Z,85.06
2019-04-21T04:35:04.006Z,85.17
2019-04-21T04:36:10.869Z,85.06
2019-04-21T04:37:12.634Z,85.38
2019-04-21T04:38:00.504Z,85.24
2019-04-21T04:39:23.241Z,85.90
2019-04-21T04:40:15.928Z,85.55
2019-04-21T04:41:12.096Z,85.44
2019-04-21T04:42:12.369Z,85.65
2019-04-21T04:43:09.010Z,85.65
2019-04-21T04:44:07.132Z,85.03
2019-04-21T04:47:05.464Z,84.92
2019-04-21T04:48:05.395Z,85.24
2019-04-21T04:49:02.422Z,85.80
2019-04-21T04:49:53.416Z,85.65
2019-04-21T04:51:02.216Z,86.07
2019-04-21T04:52:56.836Z,85.24
2019-04-21T04:57:08.382Z,85.86
2019-04-21T04:57:59.218Z,86.90
2019-04-21T04:59:22.626Z,86.59
2019-04-21T05:00:19.852Z,87.01
2019-04-21T05:01:06.158Z,87.52
2019-04-21T05:02:13.378Z,86.86
2019-04-21T05:02:56.004Z,86.65
2019-04-21T05:05:07.352Z,86.80
2019-04-21T05:06:10.561Z,86.65
2019-04-21T05:06:59.992Z,86.55
2019-04-21T05:08:08.346Z,86.76
2019-04-21T05:11:07.792Z,87.48
2019-04-21T05:11:56.351Z,87.96
2019-04-21T05:12:57.047Z,87.96
2019-04-21T05:14:06.421Z,88.07
2019-04-21T05:15:04.144Z,88.79
2019-04-21T05:16:05.295Z,87.96
2019-04-21T05:18:00.788Z,88.13
2019-04-21T05:19:10.047Z,87.09
2019-04-21T05:20:10.292Z,87.40
2019-04-21T05:21:03.624Z,87.09
2019-04-21T05:22:01.814Z,87.26
2019-04-21T05:22:53.080Z,87.26
2019-04-21T05:23:48.526Z,87.37
2019-04-21T05:24:44.007Z,87.05
2019-04-21T05:25:43.274Z,86.49
2019-04-21T05:26:46.161Z,87.01
2019-04-21T05:27:43.786Z,86.12
2019-04-21T05:28:43.641Z,86.29
2019-04-21T05:29:53.833Z,86.08
2019-04-21T05:30:57.764Z,85.46
2019-04-21T05:31:56.779Z,85.04
2019-04-21T05:32:57.599Z,84.63
2019-04-21T05:33:57.390Z,84.69
2019-04-21T05:34:53.321Z,83.97
2019-04-21T05:35:50.683Z,84.38
2019-04-21T05:36:50.304Z,84.55
2019-04-21T05:37:47.307Z,84.69
2019-04-21T05:38:50.283Z,84.75
2019-04-21T05:39:46.789Z,84.75
2019-04-21T05:40:39.926Z,84.23
2019-04-21T05:41:39.790Z,83.93
2019-04-21T05:42:45.521Z,84.09
2019-04-21T05:43:50.392Z,83.68
2019-04-21T05:44:58.113Z,84.30
2019-04-21T05:45:53.314Z,83.99
2019-04-21T05:46:59.396Z,83.64
2019-04-21T05:47:57.044Z,83.12
2019-04-21T05:48:46.944Z,82.50
2019-04-21T05:49:48.239Z,82.67
2019-04-21T05:50:49.843Z,83.50
2019-04-21T05:51:44.083Z,84.01
2019-04-21T05:52:51.385Z,85.11
2019-04-21T05:53:48.228Z,85.36
2019-04-21T05:55:49.225Z,84.50
2019-04-21T05:56:51.457Z,83.94
2019-04-21T05:57:59.883Z,82.64
2019-04-21T05:58:48.454Z,81.25
2019-04-21T05:59:49.127Z,81.67
2019-04-21T06:01:09.435Z,81.15
2019-04-21T06:01:55.528Z,80.84
2019-04-21T06:02:53.419Z,80.70
2019-04-21T06:06:05.062Z,81.07
2019-04-21T06:06:59.897Z,80.76
2019-04-21T06:07:46.178Z,79.73
2019-04-21T06:08:49.676Z,78.28
2019-04-21T06:09:56.859Z,78.35
2019-04-21T06:10:52.451Z,78.56
2019-04-21T06:11:51.601Z,78.01
2019-04-21T06:12:52.194Z,78.01
2019-04-21T06:13:54.987Z,78.01
2019-04-21T06:14:54.556Z,78.63
2019-04-21T06:15:56.222Z,78.52
2019-04-21T06:16:55.544Z,78.28
2019-04-21T06:17:50.615Z,78.63
2019-04-21T06:18:53.079Z,79.00
2019-04-21T06:20:54.726Z,77.31
2019-04-21T06:21:44.764Z,74.60
2019-04-21T06:22:53.335Z,74.16
2019-04-21T06:23:45.628Z,72.78
2019-04-21T06:25:18.709Z,72.75
2019-04-21T06:26:25.440Z,71.58
2019-04-21T06:27:01.513Z,72.00
2019-04-21T06:27:51.074Z,72.17
2019-04-21T06:28:54.872Z,74.74
2019-04-21T06:29:52.740Z,72.65
2019-04-21T06:31:01.441Z,73.57
2019-04-21T06:32:29.468Z,73.68
2019-04-21T06:32:49.357Z,74.40
2019-04-21T06:33:50.829Z,73.27
2019-04-21T06:35:14.919Z,73.54
2019-04-21T06:36:11.346Z,73.23
2019-04-21T06:37:50.134Z,73.30
2019-04-21T06:38:59.677Z,74.02
2019-04-21T06:40:11.827Z,74.32
2019-04-21T06:41:00.473Z,74.19
2019-04-21T06:41:49.791Z,74.19
2019-04-21T06:43:08.257Z,74.29
2019-04-21T06:43:56.597Z,74.80
2019-04-21T06:44:57.553Z,74.87
2019-04-21T06:46:10.894Z,73.85
2019-04-21T06:47:13.908Z,72.41
2019-04-21T06:47:51.295Z,72.41
2019-04-21T06:48:55.779Z,70.73
2019-04-21T06:49:50.551Z,70.84
2019-04-21T06:50:52.804Z,70.84
2019-04-21T06:51:48.297Z,71.15
2019-04-21T06:55:03.525Z,67.43
2019-04-21T06:55:58.518Z,66.98
2019-04-21T06:57:00.266Z,66.98
2019-04-21T06:57:51.629Z,64.53
2019-04-21T06:58:51.786Z,64.62
2019-04-21T06:59:43.647Z,63.57
2019-04-21T07:00:46.938Z,65.11
2019-04-21T07:01:50.435Z,62.83
2019-04-21T07:02:54.885Z,63.54
2019-04-21T07:04:01.052Z,61.67
2019-04-21T07:04:58.984Z,61.40
2019-04-21T07:06:00.312Z,61.26
2019-04-21T07:08:05.130Z,59.94
2019-04-21T07:09:52.868Z,60.52
2019-04-21T07:10:53.308Z,61.03
2019-04-21T07:11:53.918Z,60.80
2019-04-21T07:12:49.698Z,59.06
2019-04-21T07:13:49.017Z,58.86
2019-04-21T07:14:53.324Z,58.04
2019-04-21T07:15:53.033Z,59.34
2019-04-21T07:16:52.845Z,59.23
2019-04-21T07:17:51.220Z,59.44
2019-04-21T07:18:56.207Z,59.82
2019-04-21T07:20:07.308Z,60.85
2019-04-21T07:21:52.448Z,57.45
2019-04-21T07:22:47.784Z,56.20
2019-04-21T07:23:52.151Z,56.60
2019-04-21T07:24:54.018Z,56.30
2019-04-21T07:25:51.487Z,56.71
2019-04-21T07:27:00.166Z,56.99
2019-04-21T07:28:56.964Z,53.90
2019-04-21T07:29:55.104Z,53.70
2019-04-21T07:30:51.613Z,54.49
2019-04-21T07:31:58.717Z,55.10
2019-04-21T07:32:56.576Z,54.46
2019-04-21T07:34:52.147Z,51.89
2019-04-21T07:35:53.997Z,52.50
2019-04-21T07:37:49.264Z,50.14
2019-04-21T07:38:49.727Z,49.94
2019-04-21T07:39:52.767Z,51.16
2019-04-21T07:40:42.643Z,51.36
2019-04-21T07:41:46.998Z,51.36
2019-04-21T07:42:46.957Z,48.59
2019-04-21T07:43:44.368Z,49.43
2019-04-21T07:44:40.871Z,50.01
2019-04-21T07:45:41.913Z,51.31
2019-04-21T07:46:43.198Z,51.01
2019-04-21T07:47:48.010Z,49.89
2019-04-21T07:48:49.775Z,48.16
2019-04-21T07:49:59.025Z,50.37
2019-04-21T07:50:48.235Z,50.88
2019-04-21T07:51:50.908Z,48.24
2019-04-21T07:52:55.389Z,48.34
2019-04-21T07:53:59.602Z,48.83
2019-04-21T07:54:57.552Z,47.51
2019-04-21T07:56:33.016Z,49.62
2019-04-21T07:57:39.549Z,49.41
2019-04-21T07:58:53.605Z,48.50
2019-04-21T07:59:59.383Z,47.77
2019-04-21T08:00:52.624Z,47.99
2019-04-21T08:01:50.738Z,47.89
2019-04-21T08:02:49.682Z,49.80
2019-04-21T08:03:46.757Z,46.63
2019-04-21T08:05:10.231Z,45.72
2019-04-21T08:05:46.053Z,46.94
2019-04-21T08:06:49.544Z,48.33
2019-04-21T08:07:54.203Z,47.62
2019-04-21T08:08:50.442Z,50.05
2019-04-21T08:09:48.345Z,47.09
2019-04-21T08:10:43.951Z,47.60
2019-04-21T08:11:44.354Z,45.07
2019-04-21T08:12:41.932Z,45.37
2019-04-21T08:13:48.780Z,45.78
2019-04-21T08:14:55.745Z,45.78
2019-04-21T08:15:49.432Z,46.87
2019-04-21T08:16:57.294Z,45.78
2019-04-21T08:17:51.023Z,45.96
2019-04-21T08:18:47.272Z,44.95
2019-04-21T08:19:42.806Z,43.12
2019-04-21T08:20:41.859Z,45.53
2019-04-21T08:21:49.662Z,44.09
2019-04-21T08:23:41.434Z,48.34
2019-04-21T08:24:51.771Z,46.72
2019-04-21T08:25:59.906Z,43.18
2019-04-21T08:26:54.002Z,45.31
2019-04-21T08:28:05.934Z,46.01
2019-04-21T08:28:47.535Z,46.01
2019-04-21T08:29:47.659Z,45.18
2019-04-21T08:30:42.694Z,45.49
2019-04-21T08:34:54.871Z,43.55
2019-04-21T08:36:04.763Z,46.30
2019-04-21T08:36:44.958Z,44.86
2019-04-21T08:37:43.141Z,45.87
2019-04-21T08:38:52.191Z,43.75
2019-04-21T08:39:59.700Z,41.22
2019-04-21T08:40:40.806Z,45.97
2019-04-21T08:41:43.994Z,43.34
2019-04-21T08:42:48.577Z,45.25
2019-04-21T08:43:44.651Z,44.13
2019-04-21T08:44:46.870Z,43.63
2019-04-21T08:45:54.110Z,42.01
2019-04-21T08:46:48.747Z,43.02
2019-04-21T08:47:50.141Z,43.52
2019-04-21T08:48:50.823Z,43.23
2019-04-21T08:49:48.057Z,43.02
2019-04-21T08:50:47.611Z,42.21
2019-04-21T08:51:50.395Z,40.90
2019-04-21T08:52:49.348Z,43.63
2019-04-21T08:53:54.704Z,45.75
2019-04-21T08:54:47.074Z,47.67
2019-04-21T08:55:52.463Z,43.71
2019-04-21T08:56:49.695Z,48.05
2019-04-21T08:58:00.132Z,43.60
2019-04-21T08:58:54.872Z,44.42
2019-04-21T08:59:47.139Z,46.33
2019-04-21T09:00:51.389Z,45.32
2019-04-21T09:01:48.907Z,43.28
2019-04-21T09:02:46.575Z,44.90
2019-04-21T09:03:44.638Z,42.58
2019-04-21T09:04:50.721Z,43.79
2019-04-21T09:05:45.639Z,46.01
2019-04-21T09:07:49.292Z,42.58
2019-04-21T09:08:46.014Z,44.57
2019-04-21T09:09:47.499Z,43.97
2019-04-21T09:10:46.996Z,45.18
2019-04-21T09:11:47.216Z,45.89
2019-04-21T09:12:40.429Z,43.16
2019-04-21T09:13:40.963Z,41.95
2019-04-21T09:14:41.940Z,43.26
2019-04-21T09:15:41.685Z,43.57
2019-04-21T09:16:42.685Z,41.53
2019-04-21T09:17:39.531Z,42.94
2019-04-21T09:18:41.976Z,43.65
2019-04-21T09:19:51.315Z,43.12
2019-04-21T09:21:45.524Z,43.34
2019-04-21T09:22:41.535Z,42.13
2019-04-21T09:24:46.844Z,43.32
2019-04-21T09:25:53.058Z,42.52
2019-04-21T09:26:42.886Z,42.82
2019-04-21T09:27:42.796Z,42.32
2019-04-21T09:28:43.882Z,43.30
2019-04-21T09:29:35.420Z,45.14
2019-04-21T09:30:34.983Z,40.69
2019-04-21T09:31:31.991Z,46.33
2019-04-21T09:32:29.111Z,42.80
2019-04-21T09:33:35.740Z,41.39
2019-04-21T09:34:35.896Z,40.86
2019-04-21T09:35:26.962Z,40.77
2019-04-21T09:36:33.387Z,41.37
2019-04-21T09:37:39.254Z,41.37
2019-04-21T09:38:34.357Z,43.38
2019-04-21T09:39:28.086Z,41.67
2019-04-21T09:40:30.199Z,41.77
2019-04-21T09:41:27.481Z,39.05
2019-04-21T09:42:32.315Z,36.42
2019-04-21T09:43:35.736Z,34.72
2019-04-21T09:44:31.459Z,34.11
2019-04-21T09:45:26.499Z,35.11
2019-04-21T09:46:25.682Z,36.22
2019-04-21T09:47:34.183Z,36.50
2019-04-21T09:48:26.627Z,34.91
2019-04-21T09:49:29.023Z,30.38
2019-04-21T09:50:26.515Z,30.48
2019-04-21T09:51:25.606Z,32.20
2019-04-21T09:52:32.901Z,32.70
2019-04-21T09:53:32.870Z,33.10
2019-04-21T09:54:30.921Z,32.70
2019-04-21T09:55:32.052Z,29.38
2019-04-21T09:56:36.140Z,32.70
2019-04-21T09:57:36.689Z,35.60
2019-04-21T09:58:32.936Z,35.50
2019-04-21T09:59:29.958Z,34.59
2019-04-21T10:00:29.314Z,33.48
2019-04-21T10:01:37.114Z,32.08
2019-04-21T10:02:34.225Z,31.57
2019-04-21T10:03:26.299Z,33.59
2019-04-21T10:04:24.386Z,34.09
2019-04-21T10:05:25.547Z,32.58
2019-04-21T10:06:24.478Z,33.47
2019-04-21T10:07:31.850Z,35.98
2019-04-21T10:08:25.350Z,35.38
2019-04-21T10:09:24.411Z,33.17
2019-04-21T10:10:25.288Z,33.07
2019-04-21T10:11:24.614Z,29.75
2019-04-21T10:12:25.552Z,30.65
2019-04-21T10:13:25.396Z,31.66
2019-04-21T10:14:24.408Z,31.54
2019-04-21T10:15:26.279Z,32.45
2019-04-21T10:16:24.258Z,33.25
2019-04-21T10:17:24.369Z,33.15
2019-04-21T10:18:25.110Z,32.23
2019-04-21T10:19:25.478Z,32.33
2019-04-21T10:20:24.542Z,31.63
2019-04-21T10:21:25.817Z,31.73
2019-04-21T10:22:24.200Z,33.64
2019-04-21T10:23:27.393Z,31.93
2019-04-21T10:24:24.532Z,31.53
2019-04-21T10:25:25.292Z,32.14
2019-04-21T10:26:24.410Z,32.14
2019-04-21T10:27:25.442Z,32.53
2019-04-21T10:28:25.122Z,32.64
2019-04-21T10:29:27.378Z,32.72
2019-04-21T10:30:25.150Z,33.52
2019-04-21T10:31:24.924Z,35.23
2019-04-21T10:32:25.433Z,33.92
2019-04-21T10:33:24.236Z,34.22
2019-04-21T10:34:25.219Z,32.82
2019-04-21T10:35:25.042Z,33.62
2019-04-21T10:36:24.928Z,33.32
2019-04-21T10:37:36.520Z,32.62
2019-04-21T10:38:34.292Z,32.42
2019-04-21T10:39:25.002Z,33.92
2019-04-21T10:40:25.385Z,33.91
2019-04-21T10:41:25.490Z,35.41
2019-04-21T10:42:23.977Z,34.21
2019-04-21T10:43:25.602Z,35.01
2019-04-21T10:44:25.203Z,34.21
2019-04-21T10:45:25.198Z,34.71
2019-04-21T10:46:24.724Z,34.99
2019-04-21T10:47:24.773Z,32.79
2019-04-21T10:48:25.195Z,33.39
2019-04-21T10:49:24.504Z,34.09
2019-04-21T10:50:25.142Z,34.80
2019-04-21T10:51:25.301Z,32.39
2019-04-21T10:52:28.946Z,32.57
2019-04-21T10:53:24.923Z,33.79
2019-04-21T10:54:29.603Z,31.97
2019-04-21T10:55:41.736Z,32.17
2019-04-21T10:56:31.600Z,31.07
2019-04-21T10:57:24.852Z,32.67
2019-04-21T10:58:24.604Z,31.87
2019-04-21T10:59:25.073Z,32.17
2019-04-21T11:00:24.091Z,32.47
2019-04-21T11:01:25.048Z,30.36
2019-04-21T11:02:25.050Z,30.88
2019-04-21T11:03:24.834Z,30.36
2019-04-21T11:04:29.640Z,31.87
2019-04-21T11:05:24.943Z,30.95
2019-04-21T11:06:24.444Z,31.46
2019-04-21T11:07:29.871Z,32.62
2019-04-21T11:08:31.808Z,30.10
2019-04-21T11:09:24.690Z,31.65
2019-04-21T11:10:23.716Z,29.30
2019-04-21T11:11:24.005Z,27.17
2019-04-21T11:12:23.971Z,26.43
2019-04-21T11:13:26.046Z,22.44
2019-04-21T11:14:23.675Z,19.15
2019-04-21T11:15:25.247Z,20.63
2019-04-21T11:16:23.624Z,20.90
2019-04-21T11:17:25.940Z,21.89
2019-04-21T11:18:24.043Z,20.08
2019-04-21T11:19:24.769Z,20.37
2019-04-21T11:20:24.714Z,20.94
2019-04-21T11:21:24.820Z,20.83
2019-04-21T11:22:23.568Z,20.32
2019-04-21T11:23:24.947Z,19.13
2019-04-21T11:24:24.935Z,18.63
2019-04-21T11:25:26.277Z,18.42
2019-04-21T11:26:24.336Z,18.51
2019-04-21T11:27:24.670Z,18.52
2019-04-21T11:28:24.770Z,19.30
2019-04-21T11:29:23.603Z,18.71
2019-04-21T11:30:23.526Z,18.21
2019-04-21T11:31:25.007Z,17.72
2019-04-21T11:32:23.494Z,16.05
2019-04-21T11:33:24.878Z,16.93
2019-04-21T11:34:31.538Z,16.14
2019-04-21T11:35:23.507Z,16.12
2019-04-21T11:36:24.870Z,16.01
2019-04-21T11:37:24.152Z,16.88
2019-04-21T11:38:26.941Z,17.17
2019-04-21T11:39:35.124Z,17.66
2019-04-21T11:40:25.471Z,19.12
2019-04-21T11:41:23.928Z,18.52
2019-04-21T11:42:23.787Z,18.31
2019-04-21T11:43:23.998Z,17.63
2019-04-21T11:44:24.768Z,16.54
2019-04-21T11:45:24.521Z,16.25
2019-04-21T11:46:24.491Z,16.14
2019-04-21T11:47:24.571Z,15.55
2019-04-21T11:48:24.202Z,17.02
2019-04-21T11:49:27.099Z,15.16
2019-04-21T11:50:23.329Z,16.63
2019-04-21T11:51:24.800Z,16.63
2019-04-21T11:52:23.279Z,16.34
2019-04-21T11:54:24.627Z,15.64
2019-04-21T11:55:27.451Z,16.33
2019-04-21T11:56:25.066Z,15.95
2019-04-21T11:57:28.033Z,15.86
2019-04-21T11:58:26.010Z,15.77
2019-04-21T11:59:23.816Z,16.94
2019-04-21T12:00:23.980Z,17.72
2019-04-21T12:01:23.521Z,16.75
2019-04-21T12:02:23.576Z,16.05
2019-04-21T12:03:23.982Z,14.58
2019-04-21T12:04:23.431Z,14.79
2019-04-21T12:05:27.864Z,16.15
2019-04-21T12:06:32.373Z,17.32
2019-04-21T12:07:25.145Z,17.82
2019-04-21T12:08:32.426Z,18.59
2019-04-21T12:09:25.095Z,15.75
2019-04-21T12:10:25.210Z,16.44
2019-04-21T12:11:23.304Z,15.75
2019-04-21T12:12:23.341Z,16.53
2019-04-21T12:13:38.186Z,15.26
2019-04-21T12:14:23.822Z,15.35
2019-04-21T12:15:25.070Z,15.84
2019-04-21T12:16:23.337Z,17.12
2019-04-21T12:17:39.697Z,16.92
2019-04-21T12:18:26.341Z,15.84
2019-04-21T12:19:25.025Z,16.03
2019-04-21T12:20:26.353Z,14.76
2019-04-21T12:21:23.363Z,15.73
2019-04-21T12:22:28.116Z,16.30
2019-04-21T12:23:24.667Z,14.93
2019-04-21T12:24:23.036Z,16.30
2019-04-21T12:25:23.025Z,15.83
2019-04-21T12:26:24.166Z,16.51
2019-04-21T12:27:22.934Z,17.48
2019-04-21T12:28:23.891Z,14.47
2019-04-21T12:29:22.933Z,16.23
2019-04-21T12:30:24.046Z,17.22
2019-04-21T12:31:23.430Z,18.49
2019-04-21T12:32:24.137Z,17.71
2019-04-21T12:33:24.280Z,17.32
2019-04-21T12:34:23.917Z,17.90
2019-04-21T12:35:23.850Z,16.90
2019-04-21T12:36:24.080Z,15.92
2019-04-21T12:37:22.838Z,14.75
2019-04-21T12:38:40.660Z,14.17
2019-04-21T12:39:25.080Z,14.66
2019-04-21T12:40:24.900Z,15.24
2019-04-21T12:41:22.766Z,15.92
2019-04-21T12:42:22.913Z,16.29
2019-04-21T12:43:22.772Z,16.77
2019-04-21T12:44:22.888Z,15.41
2019-04-21T12:45:23.934Z,12.96
2019-04-21T12:46:29.893Z,13.54
2019-04-21T12:47:23.790Z,13.34
2019-04-21T12:48:23.833Z,14.89
2019-04-21T12:49:22.842Z,16.36
2019-04-21T12:50:23.625Z,15.88
2019-04-21T12:51:23.930Z,14.89
2019-04-21T12:52:23.907Z,15.19
2019-04-21T12:53:23.571Z,15.50
2019-04-21T12:54:39.644Z,16.66
2019-04-21T12:55:25.140Z,15.58
2019-04-21T12:56:25.321Z,16.66
2019-04-21T12:57:23.436Z,16.17
2019-04-21T12:58:23.651Z,15.50
2019-04-21T12:59:22.580Z,15.80
2019-04-21T13:00:22.902Z,17.16
2019-04-21T13:01:23.162Z,17.74
2019-04-21T13:02:22.538Z,18.04
2019-04-21T13:03:25.513Z,16.47
2019-04-21T13:04:23.585Z,17.66
2019-04-21T13:05:22.510Z,18.34
2019-04-21T13:06:29.719Z,18.62
2019-04-21T13:07:23.561Z,16.66
2019-04-21T13:08:24.980Z,16.66
2019-04-21T13:09:22.529Z,15.97
2019-04-21T13:10:22.647Z,15.00
2019-04-21T13:11:23.351Z,15.97
2019-04-21T13:12:22.850Z,15.19
2019-04-21T13:13:23.973Z,14.71
2019-04-21T13:14:22.485Z,16.07
2019-04-21T13:15:25.399Z,15.97
2019-04-21T13:16:23.369Z,14.91
2019-04-21T13:17:23.525Z,16.17
2019-04-21T13:18:22.633Z,15.60
2019-04-21T13:19:23.189Z,17.94
2019-04-21T13:20:23.313Z,17.94
2019-04-21T13:21:24.521Z,18.43
2019-04-21T13:22:23.462Z,19.31
2019-04-21T13:23:23.106Z,18.92
2019-04-21T13:24:22.431Z,17.86
2019-04-21T13:25:23.489Z,17.57
2019-04-21T13:26:35.526Z,17.48
2019-04-21T13:27:24.717Z,20.27
2019-04-21T13:28:22.892Z,20.72
2019-04-21T13:29:22.273Z,20.96
2019-04-21T13:30:22.444Z,22.58
2019-04-21T13:31:22.399Z,23.51
2019-04-21T13:32:22.401Z,23.94
2019-04-21T13:33:22.969Z,25.03
2019-04-21T13:34:22.325Z,24.25
2019-04-21T13:35:23.275Z,26.78
2019-04-21T13:36:23.468Z,27.19
2019-04-21T13:37:23.576Z,25.87
2019-04-21T13:38:30.119Z,26.03
2019-04-21T13:39:52.166Z,26.38
2019-04-21T13:40:39.773Z,24.27
2019-04-21T13:41:38.733Z,23.83
2019-04-21T13:42:31.139Z,23.40
2019-04-21T13:43:23.263Z,21.41
2019-04-21T13:44:23.432Z,20.80
2019-04-21T13:45:23.844Z,20.09
2019-04-21T13:46:22.807Z,19.89
2019-04-21T13:47:22.760Z,20.66
2019-04-21T13:48:22.421Z,20.26
2019-04-21T13:49:23.340Z,20.46
2019-04-21T13:50:23.572Z,20.17
2019-04-21T13:51:22.905Z,19.28
2019-04-21T13:52:22.809Z,19.88
2019-04-21T13:53:23.130Z,19.10
2019-04-21T13:54:22.062Z,20.38
2019-04-21T13:55:23.430Z,19.41
2019-04-21T13:56:22.698Z,19.90
2019-04-21T13:57:22.718Z,20.20
2019-04-21T13:58:22.164Z,21.77